sensor_id;sensor_type;location;lat;lon;timestamp;pressure;altitude;pressure_sealevel;temperature;humidity
64243;BME280;50573;51.512;5.386;2023-05-25T00:07:54;167351.25;;;10.63;100.00
64243;BME280;50573;51.512;5.386;2023-05-25T00:17:58;167311.47;;;10.48;100.00
64243;BME280;50573;51.512;5.386;2023-05-25T00:28:02;167295.59;;;10.42;100.00
64243;BME280;50573;51.512;5.386;2023-05-25T00:38:11;167271.69;;;10.33;100.00
64243;BME280;50573;51.512;5.386;2023-05-25T00:48:14;167261.13;;;10.29;100.00
64243;BME280;50573;51.512;5.386;2023-05-25T00:58:21;167243.91;;;10.23;100.00
64243;BME280;50573;51.512;5.386;2023-05-25T01:08:27;167206.78;;;10.09;100.00
64243;BME280;50573;51.512;5.386;2023-05-25T01:18:32;167177.56;;;9.98;100.00
64243;BME280;50573;51.512;5.386;2023-05-25T01:28:40;167157.72;;;9.90;100.00
64243;BME280;50573;51.512;5.386;2023-05-25T01:38:44;167141.78;;;9.84;100.00
64243;BME280;50573;51.512;5.386;2023-05-25T01:48:54;167124.56;;;9.77;100.00
64243;BME280;50573;51.512;5.386;2023-05-25T01:59:06;167087.50;;;9.63;100.00
64243;BME280;50573;51.512;5.386;2023-05-25T02:09:12;167050.44;;;9.49;100.00
64243;BME280;50573;51.512;5.386;2023-05-25T02:19:16;167001.41;;;9.31;100.00
64243;BME280;50573;51.512;5.386;2023-05-25T02:29:20;166969.66;;;9.19;100.00
64243;BME280;50573;51.512;5.386;2023-05-25T02:39:23;166924.63;;;9.02;100.00
64243;BME280;50573;51.512;5.386;2023-05-25T02:49:31;166908.75;;;8.96;100.00
64243;BME280;50573;51.512;5.386;2023-05-25T02:59:34;166888.91;;;8.88;100.00
64243;BME280;50573;51.512;5.386;2023-05-25T03:09:39;166867.72;;;8.80;100.00
64243;BME280;50573;51.512;5.386;2023-05-25T03:19:42;166854.47;;;8.75;100.00
64243;BME280;50573;51.512;5.386;2023-05-25T03:29:49;166853.16;;;8.75;100.00
64243;BME280;50573;51.512;5.386;2023-05-25T03:39:52;166866.38;;;8.80;100.00
64243;BME280;50573;51.512;5.386;2023-05-25T03:49:56;166890.19;;;8.89;100.00
64243;BME280;50573;51.512;5.386;2023-05-25T03:59:59;166890.19;;;8.89;100.00
64243;BME280;50573;51.512;5.386;2023-05-25T04:10:14;166899.47;;;8.92;100.00
64243;BME280;50573;51.512;5.386;2023-05-25T04:20:17;166918.03;;;8.99;100.00
64243;BME280;50573;51.512;5.386;2023-05-25T04:30:22;166937.88;;;9.07;100.00
64243;BME280;50573;51.512;5.386;2023-05-25T04:40:51;166982.91;;;9.24;100.00
64243;BME280;50573;51.512;5.386;2023-05-25T04:50:56;167035.84;;;9.44;100.00
64243;BME280;50573;51.512;5.386;2023-05-25T05:01:05;167104.72;;;9.70;100.00
64243;BME280;50573;51.512;5.386;2023-05-25T05:11:10;167184.22;;;10.00;100.00
64243;BME280;50573;51.512;5.386;2023-05-25T05:21:13;167253.13;;;10.26;100.00
64243;BME280;50573;51.512;5.386;2023-05-25T05:31:18;167326.00;;;10.54;100.00
64243;BME280;50573;51.512;5.386;2023-05-25T05:41:21;167451.97;;;11.01;100.00
64243;BME280;50573;51.512;5.386;2023-05-25T05:51:26;167568.66;;;11.46;100.00
64243;BME280;50573;51.512;5.386;2023-05-25T06:01:29;167648.25;;;11.76;100.00
64243;BME280;50573;51.512;5.386;2023-05-25T06:11:35;167786.22;;;12.28;100.00
64243;BME280;50573;51.512;5.386;2023-05-25T06:21:41;167845.91;;;12.50;99.54
64243;BME280;50573;51.512;5.386;2023-05-25T06:31:47;167917.56;;;12.78;96.44
64243;BME280;50573;51.512;5.386;2023-05-25T06:41:51;168061.00;;;13.32;95.31
64243;BME280;50573;51.512;5.386;2023-05-25T06:52:08;168112.78;;;13.51;90.64
64243;BME280;50573;51.512;5.386;2023-05-25T07:02:11;168107.47;;;13.49;91.12
64243;BME280;50573;51.512;5.386;2023-05-25T07:12:15;168217.66;;;13.91;89.83
64243;BME280;50573;51.512;5.386;2023-05-25T07:22:19;168378.47;;;14.52;85.56
64243;BME280;50573;51.512;5.386;2023-05-25T07:32:25;168414.38;;;14.65;83.93
64243;BME280;50573;51.512;5.386;2023-05-25T07:42:28;168527.28;;;15.08;82.08
64243;BME280;50573;51.512;5.386;2023-05-25T07:52:36;168541.94;;;15.13;79.92
64243;BME280;50573;51.512;5.386;2023-05-25T08:02:40;168519.31;;;15.05;79.77
64243;BME280;50573;51.512;5.386;2023-05-25T08:12:45;168627.03;;;15.46;78.82
64243;BME280;50573;51.512;5.386;2023-05-25T08:22:50;168781.28;;;16.04;75.04
64243;BME280;50573;51.512;5.386;2023-05-25T08:32:56;168716.13;;;15.79;73.58
64243;BME280;50573;51.512;5.386;2023-05-25T08:42:59;168861.09;;;16.34;71.49
64243;BME280;50573;51.512;5.386;2023-05-25T08:53:05;169164.53;;;17.48;69.39
64243;BME280;50573;51.512;5.386;2023-05-25T09:03:14;169022.09;;;16.95;69.71
64243;BME280;50573;51.512;5.386;2023-05-25T09:13:20;168971.56;;;16.76;69.30
64243;BME280;50573;51.512;5.386;2023-05-25T09:23:23;169064.66;;;17.11;68.46
64243;BME280;50573;51.512;5.386;2023-05-25T09:33:28;168964.88;;;16.73;70.56
64243;BME280;50573;51.512;5.386;2023-05-25T09:43:32;169000.81;;;16.87;69.39
64243;BME280;50573;51.512;5.386;2023-05-25T09:53:48;168938.31;;;16.63;68.14
64243;BME280;50573;51.512;5.386;2023-05-25T10:03:51;168911.69;;;16.53;68.42
64243;BME280;50573;51.512;5.386;2023-05-25T10:14:08;169087.31;;;17.19;69.46
64243;BME280;50573;51.512;5.386;2023-05-25T10:24:17;169205.78;;;17.64;66.23
64243;BME280;50573;51.512;5.386;2023-05-25T10:34:26;169209.78;;;17.65;64.33
64243;BME280;50573;51.512;5.386;2023-05-25T10:44:30;169140.56;;;17.39;65.48
64243;BME280;50573;51.512;5.386;2023-05-25T10:54:35;169273.72;;;17.89;61.99
64243;BME280;50573;51.512;5.386;2023-05-25T11:04:40;169334.94;;;18.13;61.56
64243;BME280;50573;51.512;5.386;2023-05-25T11:15:08;169328.28;;;18.10;58.70
64243;BME280;50573;51.512;5.386;2023-05-25T11:25:36;169468.13;;;18.63;60.27
64243;BME280;50573;51.512;5.386;2023-05-25T11:35:41;169442.84;;;18.53;58.85
64243;BME280;50573;51.512;5.386;2023-05-25T11:45:54;169773.28;;;19.78;56.13
64243;BME280;50573;51.512;5.386;2023-05-25T11:55:58;169701.31;;;19.51;55.74
64243;BME280;50573;51.512;5.386;2023-05-25T12:06:22;169392.19;;;18.34;58.38
64243;BME280;50573;51.512;5.386;2023-05-25T12:16:28;169430.88;;;18.49;58.95
64243;BME280;50573;51.512;5.386;2023-05-25T12:26:32;169620.00;;;19.20;58.27
64243;BME280;50573;51.512;5.386;2023-05-25T12:36:46;169873.31;;;20.15;55.49
64243;BME280;50573;51.512;5.386;2023-05-25T12:46:52;169717.31;;;19.57;55.82
64243;BME280;50573;51.512;5.386;2023-05-25T12:56:57;169795.94;;;19.86;55.88
64243;BME280;50573;51.512;5.386;2023-05-25T13:07:03;169593.34;;;19.10;57.55
64243;BME280;50573;51.512;5.386;2023-05-25T13:17:08;169590.72;;;19.09;56.64
64243;BME280;50573;51.512;5.386;2023-05-25T13:27:11;169645.38;;;19.29;55.31
64243;BME280;50573;51.512;5.386;2023-05-25T13:37:15;169578.72;;;19.04;56.84
64243;BME280;50573;51.512;5.386;2023-05-25T13:47:18;169685.34;;;19.45;56.18
64243;BME280;50573;51.512;5.386;2023-05-25T13:57:23;169690.69;;;19.47;54.28
64243;BME280;50573;51.512;5.386;2023-05-25T14:07:26;169747.97;;;19.68;54.41
64243;BME280;50573;51.512;5.386;2023-05-25T14:17:31;169962.66;;;20.49;50.17
64243;BME280;50573;51.512;5.386;2023-05-25T14:27:34;169994.63;;;20.61;49.37
64243;BME280;50573;51.512;5.386;2023-05-25T14:37:41;169974.66;;;20.53;51.36
64243;BME280;50573;51.512;5.386;2023-05-25T14:47:48;169906.66;;;20.28;51.69
64243;BME280;50573;51.512;5.386;2023-05-25T14:58:02;169718.66;;;19.57;52.55
64243;BME280;50573;51.512;5.386;2023-05-25T15:08:05;170168.06;;;21.26;49.25
64243;BME280;50573;51.512;5.386;2023-05-25T15:18:18;169919.94;;;20.33;50.10
64243;BME280;50573;51.512;5.386;2023-05-25T15:28:21;169814.63;;;19.93;51.49
64243;BME280;50573;51.512;5.386;2023-05-25T15:38:31;169813.28;;;19.93;52.09
64243;BME280;50573;51.512;5.386;2023-05-25T15:48:37;169769.28;;;19.76;52.08
64243;BME280;50573;51.512;5.386;2023-05-25T15:58:49;169722.66;;;19.59;54.20
64243;BME280;50573;51.512;5.386;2023-05-25T16:08:56;169650.72;;;19.32;54.92
64243;BME280;50573;51.512;5.386;2023-05-25T16:19:03;169589.38;;;19.08;55.42
64243;BME280;50573;51.512;5.386;2023-05-25T16:29:13;169645.38;;;19.29;55.11
64243;BME280;50573;51.512;5.386;2023-05-25T16:39:21;169650.72;;;19.32;54.38
64243;BME280;50573;51.512;5.386;2023-05-25T16:49:28;169509.47;;;18.78;54.91
64243;BME280;50573;51.512;5.386;2023-05-25T16:59:38;169518.78;;;18.82;56.61
64243;BME280;50573;51.512;5.386;2023-05-25T17:09:44;169502.75;;;18.76;56.41
64243;BME280;50573;51.512;5.386;2023-05-25T17:19:55;169426.88;;;18.47;55.67
64243;BME280;50573;51.512;5.386;2023-05-25T17:30:00;169418.91;;;18.44;55.72
64243;BME280;50573;51.512;5.386;2023-05-25T17:40:12;169400.19;;;18.37;57.21
64243;BME280;50573;51.512;5.386;2023-05-25T17:50:18;169332.28;;;18.12;57.61
64243;BME280;50573;51.512;5.386;2023-05-25T18:00:29;169280.34;;;17.92;59.38
64243;BME280;50573;51.512;5.386;2023-05-25T18:10:33;169292.31;;;17.96;59.18
64243;BME280;50573;51.512;5.386;2023-05-25T18:20:43;169308.34;;;18.03;60.20
64243;BME280;50573;51.512;5.386;2023-05-25T18:30:50;169314.97;;;18.05;59.96
64243;BME280;50573;51.512;5.386;2023-05-25T18:41:10;169137.88;;;17.38;62.40
64243;BME280;50573;51.512;5.386;2023-05-25T18:51:13;169008.78;;;16.90;64.62
64243;BME280;50573;51.512;5.386;2023-05-25T19:01:19;168887.66;;;16.44;66.00
64243;BME280;50573;51.512;5.386;2023-05-25T19:11:25;168822.53;;;16.19;68.03
64243;BME280;50573;51.512;5.386;2023-05-25T19:21:32;168704.16;;;15.75;69.87
64243;BME280;50573;51.512;5.386;2023-05-25T19:31:40;168607.06;;;15.38;72.13
64243;BME280;50573;51.512;5.386;2023-05-25T19:41:44;168512.72;;;15.02;73.51
64243;BME280;50573;51.512;5.386;2023-05-25T19:51:47;168442.25;;;14.76;75.14
64243;BME280;50573;51.512;5.386;2023-05-25T20:01:52;168369.16;;;14.48;76.86
64243;BME280;50573;51.512;5.386;2023-05-25T20:11:55;168321.34;;;14.30;77.59
64243;BME280;50573;51.512;5.386;2023-05-25T20:21:59;168270.81;;;14.11;78.32
64243;BME280;50573;51.512;5.386;2023-05-25T20:32:03;168225.69;;;13.94;79.11
64243;BME280;50573;51.512;5.386;2023-05-25T20:42:09;168180.50;;;13.77;79.44
64243;BME280;50573;51.512;5.386;2023-05-25T20:52:12;168147.31;;;13.64;79.86
64243;BME280;50573;51.512;5.386;2023-05-25T21:02:16;168120.75;;;13.54;79.41
64243;BME280;50573;51.512;5.386;2023-05-25T21:12:19;168088.84;;;13.42;78.98
64243;BME280;50573;51.512;5.386;2023-05-25T21:22:23;168061.00;;;13.32;78.23
64243;BME280;50573;51.512;5.386;2023-05-25T21:32:27;168018.53;;;13.16;79.48
64243;BME280;50573;51.512;5.386;2023-05-25T21:42:33;167965.34;;;12.96;79.79
64243;BME280;50573;51.512;5.386;2023-05-25T21:52:36;167909.63;;;12.75;79.81
64243;BME280;50573;51.512;5.386;2023-05-25T22:02:40;167863.19;;;12.57;80.35
64243;BME280;50573;51.512;5.386;2023-05-25T22:12:43;167804.81;;;12.35;81.23
64243;BME280;50573;51.512;5.386;2023-05-25T22:22:48;167749.09;;;12.14;82.31
64243;BME280;50573;51.512;5.386;2023-05-25T22:32:51;167693.38;;;11.93;83.43
64243;BME280;50573;51.512;5.386;2023-05-25T22:42:55;167670.81;;;11.84;83.88
64243;BME280;50573;51.512;5.386;2023-05-25T22:52:58;167616.44;;;11.64;85.53
64243;BME280;50573;51.512;5.386;2023-05-25T23:03:03;167569.94;;;11.46;86.52
64243;BME280;50573;51.512;5.386;2023-05-25T23:13:06;167515.59;;;11.26;87.69
64243;BME280;50573;51.512;5.386;2023-05-25T23:23:11;167463.88;;;11.06;89.16
64243;BME280;50573;51.512;5.386;2023-05-25T23:33:14;167420.13;;;10.89;90.89
64243;BME280;50573;51.512;5.386;2023-05-25T23:43:20;167394.94;;;10.80;91.45
64243;BME280;50573;51.512;5.386;2023-05-25T23:53:23;167332.66;;;10.56;93.51
